createdAt,value
2017-12-13T00:01:11.116Z,2.09
2017-12-13T00:03:39.038Z,2.10
2017-12-13T00:06:06.491Z,2.09
2017-12-13T00:08:33.953Z,2.11
2017-12-13T00:11:01.811Z,2.13
2017-12-13T00:13:29.269Z,2.10
2017-12-13T00:15:56.726Z,1.99
2017-12-13T00:18:24.540Z,1.92
2017-12-13T00:20:52.000Z,1.94
2017-12-13T00:23:20.104Z,1.83
2017-12-13T00:25:48.109Z,1.75
2017-12-13T00:28:15.565Z,1.63
2017-12-13T00:30:43.024Z,1.88
2017-12-13T00:33:11.700Z,1.82
2017-12-13T00:35:39.166Z,1.89
2017-12-13T00:38:06.635Z,1.87
2017-12-13T00:40:34.383Z,1.90
2017-12-13T00:43:01.842Z,1.88
2017-12-13T00:45:29.295Z,1.94
2017-12-13T00:47:57.081Z,1.93
2017-12-13T00:50:24.539Z,2.03
2017-12-13T00:52:52.004Z,2.00
2017-12-13T00:55:19.778Z,2.03
2017-12-13T00:57:47.226Z,2.05
2017-12-13T01:00:14.705Z,2.06
2017-12-13T01:02:42.388Z,2.08
2017-12-13T01:05:09.917Z,2.10
2017-12-13T01:07:37.397Z,2.11
2017-12-13T01:10:08.213Z,2.09
2017-12-13T01:12:35.677Z,2.10
2017-12-13T01:15:03.128Z,2.10
2017-12-13T01:17:30.893Z,2.03
2017-12-13T01:19:58.352Z,2.08
2017-12-13T01:22:25.802Z,2.07
2017-12-13T01:24:55.727Z,2.07
2017-12-13T01:27:23.185Z,1.99
2017-12-13T01:29:50.640Z,1.99
2017-12-13T01:32:18.721Z,1.92
2017-12-13T01:34:46.177Z,1.92
2017-12-13T01:37:13.631Z,1.90
2017-12-13T01:39:41.346Z,1.84
2017-12-13T01:42:08.799Z,1.80
2017-12-13T01:44:36.253Z,1.75
2017-12-13T01:47:03.988Z,1.75
2017-12-13T01:49:31.449Z,1.68
2017-12-13T01:51:58.902Z,1.61
2017-12-13T01:54:26.785Z,1.65
2017-12-13T01:56:54.240Z,1.59
2017-12-13T01:59:21.685Z,1.64
2017-12-13T02:01:49.782Z,1.64
2017-12-13T02:04:17.246Z,1.63
2017-12-13T02:06:44.737Z,1.60
2017-12-13T02:09:12.400Z,1.76
2017-12-13T02:11:39.860Z,1.58
2017-12-13T02:14:07.327Z,1.61
2017-12-13T02:16:35.148Z,1.61
2017-12-13T02:19:02.608Z,1.54
2017-12-13T02:21:30.074Z,1.50
2017-12-13T02:23:57.840Z,1.56
2017-12-13T02:26:25.997Z,1.67
2017-12-13T02:28:53.490Z,1.66
2017-12-13T02:31:21.448Z,1.66
2017-12-13T02:33:48.906Z,1.71
2017-12-13T02:36:16.357Z,1.65
2017-12-13T02:38:44.185Z,1.55
2017-12-13T02:41:11.642Z,1.56
2017-12-13T02:43:39.109Z,1.71
2017-12-13T02:46:06.829Z,1.61
2017-12-13T02:48:34.289Z,1.67
2017-12-13T02:51:01.754Z,1.64
2017-12-13T02:53:29.818Z,1.70
2017-12-13T02:55:57.272Z,1.63
2017-12-13T02:58:24.723Z,1.71
2017-12-13T03:00:52.553Z,1.67
2017-12-13T03:03:20.015Z,1.57
2017-12-13T03:05:47.471Z,1.68
2017-12-13T03:08:15.188Z,1.70
2017-12-13T03:10:42.644Z,1.51
2017-12-13T03:13:10.814Z,1.57
2017-12-13T03:15:38.801Z,1.62
2017-12-13T03:18:06.272Z,1.64
2017-12-13T03:20:33.749Z,1.54
2017-12-13T03:23:01.490Z,1.58
2017-12-13T03:25:28.945Z,1.64
2017-12-13T03:34:40.385Z,1.33
2017-12-13T03:37:07.841Z,1.37
2017-12-13T03:39:35.305Z,1.37
2017-12-13T03:42:03.068Z,1.30
2017-12-13T03:44:30.521Z,1.37
2017-12-13T03:46:57.973Z,1.38
2017-12-13T03:49:26.072Z,1.25
2017-12-13T03:51:53.532Z,1.23
2017-12-13T03:54:20.991Z,1.09
2017-12-13T03:56:49.055Z,0.96
2017-12-13T03:59:16.516Z,0.83
2017-12-13T04:01:43.986Z,0.93
2017-12-13T04:04:11.566Z,0.82
2017-12-13T04:06:39.019Z,0.94
2017-12-13T04:09:06.472Z,0.85
2017-12-13T04:11:34.443Z,0.83
2017-12-13T04:14:01.894Z,0.78
2017-12-13T04:16:29.365Z,0.71
2017-12-13T04:18:57.126Z,0.49
2017-12-13T04:21:24.598Z,0.47
2017-12-13T04:23:52.051Z,0.49
2017-12-13T04:26:19.773Z,0.49
2017-12-13T04:28:48.542Z,0.47
2017-12-13T04:31:16.003Z,0.43
2017-12-13T04:33:43.975Z,0.41
2017-12-13T04:36:11.448Z,0.45
2017-12-13T04:38:38.905Z,1.09
2017-12-13T04:41:06.715Z,0.48
2017-12-13T04:43:34.175Z,0.31
2017-12-13T04:46:01.628Z,0.30
2017-12-13T04:48:29.711Z,0.18
2017-12-13T04:50:57.172Z,0.25
2017-12-13T04:53:24.634Z,0.07
2017-12-13T04:55:52.300Z,0.05
2017-12-13T04:58:19.761Z,0.20
2017-12-13T05:00:47.216Z,0.18
2017-12-13T05:03:15.090Z,0.18
2017-12-13T05:05:42.552Z,0.17
2017-12-13T05:08:10.009Z,0.13
2017-12-13T05:10:39.665Z,0.04
2017-12-13T05:13:07.450Z,0.03
2017-12-13T05:15:34.908Z,0.01
2017-12-13T05:18:02.677Z,-0.03
2017-12-13T05:20:30.189Z,0.11
2017-12-13T05:22:57.640Z,0.08
2017-12-13T05:25:25.684Z,0.21
2017-12-13T05:27:53.146Z,0.24
2017-12-13T05:30:20.600Z,0.39
2017-12-13T05:32:48.349Z,0.49
2017-12-13T05:35:15.809Z,0.50
2017-12-13T05:37:43.271Z,0.49
2017-12-13T05:40:11.032Z,0.46
2017-12-13T05:42:38.490Z,0.57
2017-12-13T05:45:05.947Z,0.57
2017-12-13T05:47:33.731Z,0.50
2017-12-13T05:50:01.197Z,0.51
2017-12-13T05:52:28.657Z,0.46
2017-12-13T05:54:56.420Z,0.54
2017-12-13T05:57:23.882Z,0.51
2017-12-13T05:59:51.346Z,0.58
2017-12-13T06:02:19.013Z,0.58
2017-12-13T06:04:47.150Z,0.53
2017-12-13T06:07:14.623Z,0.38
2017-12-13T06:09:42.508Z,0.35
2017-12-13T06:12:10.561Z,0.28
2017-12-13T06:14:38.016Z,0.35
2017-12-13T06:17:06.130Z,0.45
2017-12-13T06:19:33.576Z,0.45
2017-12-13T06:22:01.029Z,0.48
2017-12-13T06:24:29.008Z,0.46
2017-12-13T06:26:56.470Z,0.46
2017-12-13T06:29:23.936Z,0.60
2017-12-13T06:31:51.999Z,0.56
2017-12-13T06:34:19.462Z,0.73
2017-12-13T06:36:46.921Z,0.65
2017-12-13T06:39:14.691Z,0.80
2017-12-13T06:41:42.146Z,0.56
2017-12-13T06:44:09.599Z,0.53
2017-12-13T06:46:37.377Z,0.21
2017-12-13T06:49:04.826Z,0.17
2017-12-13T06:51:32.284Z,0.13
2017-12-13T06:54:00.370Z,0.00
2017-12-13T06:56:27.854Z,0.09
2017-12-13T06:58:55.327Z,0.04
2017-12-13T07:01:23.374Z,0.06
2017-12-13T07:03:50.828Z,-0.02
2017-12-13T07:06:18.298Z,-0.04
2017-12-13T07:08:46.055Z,-0.03
2017-12-13T07:11:13.541Z,-0.06
2017-12-13T07:13:41.664Z,-0.07
2017-12-13T07:16:09.621Z,-0.05
2017-12-13T07:18:37.090Z,-0.24
2017-12-13T07:21:04.553Z,-0.20
2017-12-13T07:23:32.392Z,0.01
2017-12-13T07:25:59.872Z,-0.13
2017-12-13T07:28:27.340Z,-0.14
2017-12-13T07:30:55.014Z,-0.21
2017-12-13T07:33:22.482Z,-0.26
2017-12-13T07:35:49.944Z,-0.18
2017-12-13T07:38:18.332Z,-0.19
2017-12-13T07:40:45.793Z,-0.19
2017-12-13T07:43:13.249Z,-0.19
2017-12-13T07:45:40.925Z,-0.21
2017-12-13T07:48:08.428Z,-0.23
2017-12-13T07:50:35.901Z,-0.13
2017-12-13T07:53:03.704Z,-0.15
2017-12-13T07:55:31.174Z,-0.14
2017-12-13T07:57:58.636Z,-0.10
2017-12-13T08:00:26.473Z,-0.09
2017-12-13T08:02:53.931Z,-0.09
2017-12-13T08:05:21.385Z,0.02
2017-12-13T08:07:49.245Z,0.08
2017-12-13T08:10:16.725Z,0.06
2017-12-13T08:12:44.187Z,0.18
2017-12-13T08:15:13.013Z,0.21
2017-12-13T08:17:40.470Z,0.28
2017-12-13T08:20:07.924Z,0.33
2017-12-13T08:22:35.737Z,0.40
2017-12-13T08:25:03.193Z,0.48
2017-12-13T08:27:30.645Z,0.51
2017-12-13T08:29:58.370Z,0.60
2017-12-13T08:32:25.835Z,0.62
2017-12-13T08:34:53.297Z,0.70
2017-12-13T08:37:21.061Z,0.74
2017-12-13T08:39:48.527Z,0.84
2017-12-13T08:42:15.985Z,1.04
2017-12-13T08:44:43.754Z,1.07
2017-12-13T08:47:11.211Z,1.06
2017-12-13T08:49:38.677Z,1.14
2017-12-13T08:52:06.436Z,1.19
2017-12-13T08:54:33.909Z,1.20
2017-12-13T08:57:01.373Z,1.29
2017-12-13T08:59:29.116Z,1.40
2017-12-13T09:01:56.573Z,1.36
2017-12-13T09:04:24.035Z,1.36
2017-12-13T09:06:51.812Z,1.40
2017-12-13T09:09:19.273Z,1.36
2017-12-13T09:11:46.725Z,1.60
2017-12-13T09:14:14.453Z,1.55
2017-12-13T09:16:43.556Z,1.68
2017-12-13T09:19:11.021Z,1.79
2017-12-13T09:21:39.018Z,1.79
2017-12-13T09:24:06.481Z,1.97
2017-12-13T09:26:33.944Z,1.98
2017-12-13T09:29:01.713Z,1.99
2017-12-13T09:31:29.461Z,2.14
2017-12-13T09:33:56.913Z,1.97
2017-12-13T09:36:24.718Z,2.19
2017-12-13T09:38:52.189Z,2.44
2017-12-13T09:41:19.645Z,2.62
2017-12-13T09:43:47.395Z,2.76
2017-12-13T09:46:14.852Z,2.61
2017-12-13T09:48:42.359Z,2.69
2017-12-13T09:51:10.358Z,2.92
2017-12-13T09:53:37.819Z,2.89
2017-12-13T09:56:05.283Z,2.94
2017-12-13T09:58:33.058Z,3.10
2017-12-13T10:01:00.504Z,3.06
2017-12-13T10:03:27.973Z,3.23
2017-12-13T10:05:55.682Z,3.23
2017-12-13T10:08:23.139Z,3.05
2017-12-13T10:10:50.604Z,3.13
2017-12-13T10:13:18.285Z,3.15
2017-12-13T10:15:45.745Z,3.25
2017-12-13T10:18:13.752Z,3.40
2017-12-13T10:20:41.440Z,3.30
2017-12-13T10:23:08.892Z,3.68
2017-12-13T10:32:20.025Z,3.68
2017-12-13T10:34:47.474Z,3.78
2017-12-13T10:37:14.921Z,3.74
2017-12-13T10:39:42.702Z,3.85
2017-12-13T10:42:10.149Z,3.95
2017-12-13T10:44:37.609Z,3.89
2017-12-13T10:47:05.397Z,3.94
2017-12-13T10:49:32.857Z,3.96
2017-12-13T10:52:00.305Z,3.94
2017-12-13T10:54:28.097Z,3.91
2017-12-13T10:56:55.560Z,4.15
2017-12-13T10:59:23.013Z,4.21
2017-12-13T11:01:50.656Z,4.29
2017-12-13T11:04:18.107Z,4.18
2017-12-13T11:06:45.552Z,4.41
2017-12-13T11:09:13.472Z,4.38
2017-12-13T11:11:40.926Z,4.17
2017-12-13T11:14:08.393Z,4.37
2017-12-13T11:16:36.446Z,4.93
2017-12-13T11:19:04.326Z,4.79
2017-12-13T11:21:31.761Z,5.06
2017-12-13T11:23:59.446Z,5.43
2017-12-13T11:26:26.895Z,5.07
2017-12-13T11:28:54.341Z,4.73
2017-12-13T11:31:22.035Z,4.79
2017-12-13T11:33:49.485Z,4.78
2017-12-13T11:36:16.940Z,5.20
2017-12-13T11:38:45.083Z,5.09
2017-12-13T11:41:12.533Z,4.90
2017-12-13T11:43:39.994Z,4.84
2017-12-13T11:46:07.823Z,5.01
2017-12-13T11:48:35.290Z,5.20
2017-12-13T11:51:02.742Z,4.73
2017-12-13T11:53:30.810Z,5.60
2017-12-13T11:55:58.269Z,5.41
2017-12-13T11:58:25.727Z,5.62
2017-12-13T12:00:53.812Z,5.96
2017-12-13T12:03:21.310Z,7.16
2017-12-13T12:05:49.511Z,9.74
2017-12-13T12:08:17.425Z,11.08
2017-12-13T12:10:44.881Z,10.42
2017-12-13T12:13:12.337Z,12.78
2017-12-13T12:15:40.104Z,10.82
2017-12-13T12:18:07.569Z,12.53
2017-12-13T12:20:35.406Z,11.85
2017-12-13T12:23:03.226Z,12.46
2017-12-13T12:25:30.682Z,13.41
2017-12-13T12:27:58.142Z,14.17
2017-12-13T12:30:26.086Z,13.55
2017-12-13T12:32:53.534Z,14.38
2017-12-13T12:35:20.982Z,14.93
2017-12-13T12:37:49.390Z,13.30
2017-12-13T12:40:16.844Z,14.23
2017-12-13T12:42:44.299Z,13.88
2017-12-13T12:45:11.952Z,14.10
2017-12-13T12:47:39.409Z,11.90
2017-12-13T12:50:06.857Z,13.20
2017-12-13T12:52:34.709Z,15.47
2017-12-13T12:55:02.163Z,13.77
2017-12-13T12:57:29.608Z,15.51
2017-12-13T12:59:57.449Z,18.30
2017-12-13T13:02:24.910Z,15.23
2017-12-13T13:04:52.358Z,15.21
2017-12-13T13:07:20.148Z,16.71
2017-12-13T13:09:47.696Z,15.09
2017-12-13T13:12:15.146Z,13.93
2017-12-13T13:14:42.821Z,13.16
2017-12-13T13:17:10.269Z,15.49
2017-12-13T13:19:37.716Z,13.99
2017-12-13T13:22:06.285Z,14.12
2017-12-13T13:24:33.833Z,13.95
2017-12-13T13:27:01.299Z,13.50
2017-12-13T13:29:29.166Z,14.57
2017-12-13T13:31:56.633Z,12.72
2017-12-13T13:34:24.086Z,12.33
2017-12-13T13:36:51.814Z,12.44
2017-12-13T13:39:19.268Z,11.09
2017-12-13T13:41:46.717Z,11.47
2017-12-13T13:44:14.494Z,13.19
2017-12-13T13:46:41.938Z,12.09
2017-12-13T13:49:09.393Z,12.70
2017-12-13T13:51:37.476Z,12.64
2017-12-13T13:54:04.923Z,15.48
2017-12-13T13:56:32.376Z,13.78
2017-12-13T13:58:59.951Z,12.56
2017-12-13T14:01:27.395Z,11.36
2017-12-13T14:03:54.846Z,11.15
2017-12-13T14:06:22.549Z,11.61
2017-12-13T14:08:50.006Z,12.55
2017-12-13T14:11:17.445Z,11.22
2017-12-13T14:13:45.233Z,10.61
2017-12-13T14:16:12.676Z,9.18
2017-12-13T14:18:40.126Z,11.05
2017-12-13T14:21:07.966Z,10.12
2017-12-13T14:23:35.445Z,10.13
2017-12-13T14:26:02.894Z,8.70
2017-12-13T14:28:30.605Z,6.69
2017-12-13T14:30:58.064Z,6.59
2017-12-13T14:33:25.515Z,7.30
2017-12-13T14:35:53.297Z,6.58
2017-12-13T14:38:20.735Z,6.80
2017-12-13T14:40:48.283Z,7.19
2017-12-13T14:43:15.982Z,6.52
2017-12-13T14:45:43.538Z,6.72
2017-12-13T14:48:10.985Z,7.13
2017-12-13T14:50:38.678Z,6.51
2017-12-13T14:53:06.125Z,5.47
2017-12-13T14:55:33.568Z,4.99
2017-12-13T14:58:01.358Z,4.68
2017-12-13T15:00:28.802Z,5.04
2017-12-13T15:02:56.241Z,4.73
2017-12-13T15:05:24.078Z,4.66
2017-12-13T15:07:51.513Z,4.60
2017-12-13T15:10:18.968Z,4.09
2017-12-13T15:12:47.041Z,3.68
2017-12-13T15:15:14.484Z,3.71
2017-12-13T15:17:41.933Z,3.71
2017-12-13T15:20:09.727Z,3.33
2017-12-13T15:22:37.174Z,3.27
2017-12-13T15:25:05.326Z,3.32
2017-12-13T15:27:33.161Z,4.17
2017-12-13T15:30:00.620Z,3.42
2017-12-13T15:32:28.061Z,3.08
2017-12-13T15:34:56.042Z,2.93
2017-12-13T15:37:23.488Z,2.77
2017-12-13T15:39:50.937Z,2.71
2017-12-13T15:42:18.568Z,2.63
2017-12-13T15:44:46.026Z,2.58
2017-12-13T15:47:13.476Z,2.44
2017-12-13T15:49:41.390Z,2.56
2017-12-13T15:52:10.348Z,2.27
2017-12-13T15:54:37.800Z,2.21
2017-12-13T15:57:05.491Z,2.11
2017-12-13T15:59:32.938Z,2.05
2017-12-13T16:02:00.393Z,1.95
2017-12-13T16:04:28.312Z,1.88
2017-12-13T16:06:55.754Z,1.81
2017-12-13T16:09:23.205Z,1.75
2017-12-13T16:11:50.992Z,1.69
2017-12-13T16:14:18.433Z,1.71
2017-12-13T16:16:45.876Z,1.48
2017-12-13T16:19:13.691Z,1.42
2017-12-13T16:21:41.142Z,1.67
2017-12-13T16:24:08.588Z,1.66
2017-12-13T16:26:38.017Z,1.47
2017-12-13T16:29:05.723Z,1.47
2017-12-13T16:31:33.180Z,1.32
2017-12-13T16:34:01.213Z,1.28
2017-12-13T16:36:28.649Z,1.34
2017-12-13T16:38:56.101Z,1.38
2017-12-13T16:41:23.897Z,1.36
2017-12-13T16:43:51.335Z,1.27
2017-12-13T16:46:18.780Z,1.31
2017-12-13T16:48:46.577Z,1.27
2017-12-13T16:51:14.022Z,1.17
2017-12-13T16:53:41.473Z,1.21
2017-12-13T16:56:09.265Z,1.29
2017-12-13T16:58:36.705Z,1.14
2017-12-13T17:01:04.206Z,1.25
2017-12-13T17:03:31.798Z,1.13
2017-12-13T17:05:59.258Z,1.23
2017-12-13T17:08:26.707Z,1.23
2017-12-13T17:10:54.638Z,1.20
2017-12-13T17:13:22.079Z,1.20
2017-12-13T17:15:49.530Z,1.28
2017-12-13T17:18:17.326Z,1.20
2017-12-13T17:20:44.773Z,1.16
2017-12-13T17:23:12.224Z,1.13
2017-12-13T17:25:39.990Z,1.22
2017-12-13T17:28:07.801Z,1.06
2017-12-13T17:30:35.258Z,1.21
2017-12-13T17:33:03.018Z,0.97
2017-12-13T17:35:30.464Z,1.06
2017-12-13T17:37:57.907Z,1.03
2017-12-13T17:40:25.694Z,0.96
2017-12-13T17:42:53.140Z,0.93
2017-12-13T17:45:20.612Z,1.06
2017-12-13T17:47:48.376Z,0.99
2017-12-13T17:50:15.825Z,0.90
2017-12-13T17:52:43.288Z,0.80
2017-12-13T17:55:11.098Z,0.85
2017-12-13T17:57:38.554Z,0.79
2017-12-13T18:00:06.017Z,0.87
2017-12-13T18:02:33.761Z,1.32
2017-12-13T18:05:01.232Z,1.70
2017-12-13T18:07:28.682Z,2.01
2017-12-13T18:09:56.317Z,1.44
2017-12-13T18:12:23.766Z,1.94
2017-12-13T18:14:51.226Z,1.22
2017-12-13T18:17:19.198Z,1.16
2017-12-13T18:19:46.651Z,0.97
2017-12-13T18:22:14.105Z,0.92
2017-12-13T18:24:41.806Z,0.88
2017-12-13T18:27:09.261Z,0.89
2017-12-13T18:29:37.109Z,0.95
2017-12-13T18:32:05.157Z,1.01
2017-12-13T18:34:32.589Z,1.04
2017-12-13T18:37:00.044Z,0.98
2017-12-13T18:39:27.809Z,0.98
2017-12-13T18:41:55.260Z,0.97
2017-12-13T18:44:22.704Z,0.95
2017-12-13T18:46:50.486Z,0.82
2017-12-13T18:49:17.935Z,0.97
2017-12-13T18:51:45.381Z,0.94
2017-12-13T18:54:13.176Z,0.92
2017-12-13T18:56:40.629Z,1.05
2017-12-13T18:59:08.086Z,1.11
2017-12-13T19:01:35.861Z,1.12
2017-12-13T19:04:03.306Z,1.21
2017-12-13T19:06:30.762Z,1.18
2017-12-13T19:08:58.545Z,1.52
2017-12-13T19:11:25.991Z,1.22
2017-12-13T19:13:53.489Z,1.38
2017-12-13T19:16:21.250Z,1.16
2017-12-13T19:18:48.705Z,1.27
2017-12-13T19:21:16.154Z,1.42
2017-12-13T19:23:43.958Z,1.18
2017-12-13T19:26:11.415Z,1.21
2017-12-13T19:28:38.890Z,1.30
2017-12-13T19:31:07.556Z,1.54
2017-12-13T19:33:35.005Z,1.62
2017-12-13T19:36:02.462Z,1.56
2017-12-13T19:38:30.230Z,1.54
2017-12-13T19:40:57.674Z,1.51
2017-12-13T19:43:25.139Z,1.87
2017-12-13T19:45:52.914Z,1.73
2017-12-13T19:48:20.361Z,1.60
2017-12-13T19:50:47.818Z,1.59
2017-12-13T19:53:15.592Z,1.56
2017-12-13T19:55:43.038Z,1.76
2017-12-13T19:58:10.557Z,1.75
2017-12-13T20:00:38.599Z,1.59
2017-12-13T20:03:06.057Z,1.65
2017-12-13T20:05:33.507Z,1.58
2017-12-13T20:08:01.279Z,1.71
2017-12-13T20:10:28.735Z,1.77
2017-12-13T20:12:56.225Z,1.75
2017-12-13T20:15:23.977Z,1.90
2017-12-13T20:17:51.435Z,1.88
2017-12-13T20:20:18.885Z,1.86
2017-12-13T20:22:46.658Z,1.92
2017-12-13T20:25:14.117Z,1.95
2017-12-13T20:27:41.576Z,1.96
2017-12-13T20:30:09.349Z,2.00
2017-12-13T20:32:36.869Z,2.06
2017-12-13T20:35:05.233Z,2.00
2017-12-13T20:37:32.967Z,1.98
2017-12-13T20:40:00.414Z,2.10
2017-12-13T20:42:27.863Z,2.00
2017-12-13T20:44:55.638Z,2.00
2017-12-13T20:47:23.078Z,2.12
2017-12-13T20:49:50.669Z,2.38
2017-12-13T20:52:18.637Z,2.19
2017-12-13T20:54:46.115Z,2.32
2017-12-13T20:57:13.566Z,2.24
2017-12-13T20:59:41.647Z,1.92
2017-12-13T21:02:09.132Z,2.00
2017-12-13T21:04:36.588Z,1.98
2017-12-13T21:07:04.369Z,1.79
2017-12-13T21:09:31.816Z,1.89
2017-12-13T21:11:59.253Z,1.86
2017-12-13T21:14:27.346Z,1.74
2017-12-13T21:16:54.794Z,1.57
2017-12-13T21:19:22.242Z,1.58
2017-12-13T21:21:49.986Z,1.67
2017-12-13T21:24:17.426Z,1.42
2017-12-13T21:26:44.865Z,1.31
2017-12-13T21:29:12.670Z,1.02
2017-12-13T21:31:40.122Z,1.10
2017-12-13T21:34:08.294Z,1.18
2017-12-13T21:36:36.006Z,0.98
2017-12-13T21:39:03.441Z,0.95
2017-12-13T21:41:30.894Z,0.91
2017-12-13T21:43:58.966Z,1.14
2017-12-13T21:46:26.412Z,1.09
2017-12-13T21:48:53.859Z,1.08
2017-12-13T21:51:21.657Z,1.08
2017-12-13T21:53:49.101Z,1.04
2017-12-13T21:56:17.753Z,1.03
2017-12-13T21:58:45.445Z,0.94
2017-12-13T22:01:12.887Z,0.84
2017-12-13T22:03:40.345Z,0.73
2017-12-13T22:06:08.252Z,0.81
2017-12-13T22:08:35.697Z,0.80
2017-12-13T22:11:03.152Z,0.80
2017-12-13T22:13:30.942Z,0.67
2017-12-13T22:15:58.381Z,0.73
2017-12-13T22:18:25.834Z,0.83
2017-12-13T22:20:53.637Z,0.69
2017-12-13T22:23:21.082Z,0.44
2017-12-13T22:25:48.524Z,0.55
2017-12-13T22:28:16.162Z,0.29
2017-12-13T22:30:43.608Z,0.22
2017-12-13T22:33:11.052Z,0.12
2017-12-13T22:35:41.158Z,0.17
2017-12-13T22:38:08.628Z,0.11
2017-12-13T22:40:36.072Z,0.06
2017-12-13T22:43:03.856Z,0.28
2017-12-13T22:45:31.314Z,0.07
2017-12-13T22:47:58.757Z,0.10
2017-12-13T22:50:26.545Z,0.23
2017-12-13T22:52:54.001Z,-0.01
2017-12-13T22:55:21.448Z,0.01
2017-12-13T22:57:49.536Z,0.19
2017-12-13T23:00:16.985Z,0.29
2017-12-13T23:02:44.433Z,0.54
2017-12-13T23:05:12.220Z,0.56
2017-12-13T23:07:39.668Z,0.52
2017-12-13T23:10:07.120Z,0.66
2017-12-13T23:12:34.898Z,0.76
2017-12-13T23:15:02.338Z,0.80
2017-12-13T23:17:29.794Z,0.80
2017-12-13T23:19:57.581Z,0.76
2017-12-13T23:22:25.021Z,0.75
2017-12-13T23:24:52.461Z,0.78
2017-12-13T23:27:20.285Z,0.82
2017-12-13T23:29:47.734Z,0.66
2017-12-13T23:32:15.182Z,0.67
2017-12-13T23:34:43.279Z,0.71
2017-12-13T23:37:11.561Z,0.57
2017-12-13T23:39:39.005Z,0.49
2017-12-13T23:42:06.619Z,0.56
2017-12-13T23:44:34.055Z,0.57
2017-12-13T23:47:01.780Z,0.62
2017-12-13T23:49:29.775Z,0.63
2017-12-13T23:51:57.208Z,0.63
2017-12-13T23:54:24.662Z,0.77
2017-12-13T23:56:52.564Z,0.63
2017-12-13T23:59:20.001Z,0.52
